sensor_id;sensor_type;location;lat;lon;timestamp;temperature;humidity
8539;DHT22;4307;53.868;11.680;2023-10-19T00:00:46;8.30;99.90
8539;DHT22;4307;53.868;11.680;2023-10-19T00:03:15;8.30;99.90
8539;DHT22;4307;53.868;11.680;2023-10-19T00:05:41;8.30;99.90
8539;DHT22;4307;53.868;11.680;2023-10-19T00:08:09;8.30;99.90
8539;DHT22;4307;53.868;11.680;2023-10-19T00:10:41;8.30;99.90
8539;DHT22;4307;53.868;11.680;2023-10-19T00:13:10;8.30;99.90
8539;DHT22;4307;53.868;11.680;2023-10-19T00:15:37;8.40;99.90
8539;DHT22;4307;53.868;11.680;2023-10-19T00:18:06;8.40;99.90
8539;DHT22;4307;53.868;11.680;2023-10-19T00:20:48;8.40;99.90
8539;DHT22;4307;53.868;11.680;2023-10-19T00:23:20;8.50;99.90
8539;DHT22;4307;53.868;11.680;2023-10-19T00:25:55;8.50;99.90
8539;DHT22;4307;53.868;11.680;2023-10-19T00:28:21;8.50;99.90
8539;DHT22;4307;53.868;11.680;2023-10-19T00:30:51;8.50;99.90
8539;DHT22;4307;53.868;11.680;2023-10-19T00:33:18;8.50;99.90
8539;DHT22;4307;53.868;11.680;2023-10-19T00:35:47;8.50;99.90
8539;DHT22;4307;53.868;11.680;2023-10-19T00:38:17;8.50;99.90
8539;DHT22;4307;53.868;11.680;2023-10-19T00:41:06;8.50;99.90
8539;DHT22;4307;53.868;11.680;2023-10-19T00:43:38;8.50;99.90
8539;DHT22;4307;53.868;11.680;2023-10-19T00:46:08;8.50;99.90
8539;DHT22;4307;53.868;11.680;2023-10-19T00:48:40;8.50;99.90
8539;DHT22;4307;53.868;11.680;2023-10-19T00:51:06;8.50;99.90
8539;DHT22;4307;53.868;11.680;2023-10-19T00:53:36;8.50;99.90
8539;DHT22;4307;53.868;11.680;2023-10-19T00:56:07;8.50;99.90
8539;DHT22;4307;53.868;11.680;2023-10-19T00:58:36;8.50;99.90
8539;DHT22;4307;53.868;11.680;2023-10-19T01:01:05;8.50;99.90
8539;DHT22;4307;53.868;11.680;2023-10-19T01:03:33;8.50;99.90
8539;DHT22;4307;53.868;11.680;2023-10-19T01:06:03;8.50;99.90
8539;DHT22;4307;53.868;11.680;2023-10-19T01:08:36;8.60;99.90
8539;DHT22;4307;53.868;11.680;2023-10-19T01:11:10;8.50;99.90
8539;DHT22;4307;53.868;11.680;2023-10-19T01:13:37;8.60;99.90
8539;DHT22;4307;53.868;11.680;2023-10-19T01:16:12;8.60;99.90
8539;DHT22;4307;53.868;11.680;2023-10-19T01:18:41;8.60;99.90
8539;DHT22;4307;53.868;11.680;2023-10-19T01:21:08;8.60;99.90
8539;DHT22;4307;53.868;11.680;2023-10-19T01:23:38;8.60;99.90
8539;DHT22;4307;53.868;11.680;2023-10-19T01:26:05;8.60;99.90
8539;DHT22;4307;53.868;11.680;2023-10-19T01:28:37;8.60;99.90
8539;DHT22;4307;53.868;11.680;2023-10-19T01:31:14;8.60;99.90
8539;DHT22;4307;53.868;11.680;2023-10-19T01:33:43;8.60;99.90
8539;DHT22;4307;53.868;11.680;2023-10-19T01:36:11;8.60;99.90
8539;DHT22;4307;53.868;11.680;2023-10-19T01:38:41;8.70;99.90
8539;DHT22;4307;53.868;11.680;2023-10-19T01:41:08;8.70;99.90
8539;DHT22;4307;53.868;11.680;2023-10-19T01:43:40;8.70;99.90
8539;DHT22;4307;53.868;11.680;2023-10-19T01:46:07;8.60;99.90
8539;DHT22;4307;53.868;11.680;2023-10-19T01:48:38;8.60;99.90
8539;DHT22;4307;53.868;11.680;2023-10-19T01:51:06;8.60;99.90
8539;DHT22;4307;53.868;11.680;2023-10-19T01:53:36;8.60;99.90
8539;DHT22;4307;53.868;11.680;2023-10-19T01:56:06;8.60;99.90
8539;DHT22;4307;53.868;11.680;2023-10-19T01:58:35;8.60;99.90
8539;DHT22;4307;53.868;11.680;2023-10-19T02:01:02;8.60;99.90
8539;DHT22;4307;53.868;11.680;2023-10-19T02:03:34;8.60;99.90
8539;DHT22;4307;53.868;11.680;2023-10-19T02:06:02;8.60;99.90
8539;DHT22;4307;53.868;11.680;2023-10-19T02:08:36;8.60;99.90
8539;DHT22;4307;53.868;11.680;2023-10-19T02:11:05;8.60;99.90
8539;DHT22;4307;53.868;11.680;2023-10-19T02:13:39;8.60;99.90
8539;DHT22;4307;53.868;11.680;2023-10-19T02:16:06;8.60;99.90
8539;DHT22;4307;53.868;11.680;2023-10-19T02:18:32;8.60;99.90
8539;DHT22;4307;53.868;11.680;2023-10-19T02:21:00;8.60;99.90
8539;DHT22;4307;53.868;11.680;2023-10-19T02:23:27;8.60;99.90
8539;DHT22;4307;53.868;11.680;2023-10-19T02:25:54;8.60;99.90
8539;DHT22;4307;53.868;11.680;2023-10-19T02:28:21;8.60;99.90
8539;DHT22;4307;53.868;11.680;2023-10-19T02:30:54;8.60;99.90
8539;DHT22;4307;53.868;11.680;2023-10-19T02:33:20;8.60;99.90
8539;DHT22;4307;53.868;11.680;2023-10-19T02:35:47;8.60;99.90
8539;DHT22;4307;53.868;11.680;2023-10-19T02:38:13;8.60;99.90
8539;DHT22;4307;53.868;11.680;2023-10-19T02:40:40;8.60;99.90
8539;DHT22;4307;53.868;11.680;2023-10-19T02:43:05;8.60;99.90
8539;DHT22;4307;53.868;11.680;2023-10-19T02:45:34;8.60;99.90
8539;DHT22;4307;53.868;11.680;2023-10-19T02:48:00;8.60;99.90
8539;DHT22;4307;53.868;11.680;2023-10-19T02:50:26;8.60;99.90
8539;DHT22;4307;53.868;11.680;2023-10-19T02:52:52;8.60;99.90
8539;DHT22;4307;53.868;11.680;2023-10-19T02:55:19;8.60;99.90
8539;DHT22;4307;53.868;11.680;2023-10-19T02:57:45;8.60;99.90
8539;DHT22;4307;53.868;11.680;2023-10-19T03:00:13;8.60;99.90
8539;DHT22;4307;53.868;11.680;2023-10-19T03:02:41;8.60;99.90
8539;DHT22;4307;53.868;11.680;2023-10-19T03:05:07;8.60;99.90
8539;DHT22;4307;53.868;11.680;2023-10-19T03:07:40;8.60;99.90
8539;DHT22;4307;53.868;11.680;2023-10-19T03:10:08;8.60;99.90
8539;DHT22;4307;53.868;11.680;2023-10-19T03:12:48;8.60;99.90
8539;DHT22;4307;53.868;11.680;2023-10-19T03:15:15;8.60;99.90
8539;DHT22;4307;53.868;11.680;2023-10-19T03:17:42;8.60;99.90
8539;DHT22;4307;53.868;11.680;2023-10-19T03:20:09;8.50;99.90
8539;DHT22;4307;53.868;11.680;2023-10-19T03:22:36;8.60;99.90
8539;DHT22;4307;53.868;11.680;2023-10-19T03:25:04;8.60;99.90
8539;DHT22;4307;53.868;11.680;2023-10-19T03:27:57;8.50;99.90
8539;DHT22;4307;53.868;11.680;2023-10-19T03:30:23;8.60;99.90
8539;DHT22;4307;53.868;11.680;2023-10-19T03:32:52;8.60;99.90
8539;DHT22;4307;53.868;11.680;2023-10-19T03:35:19;8.60;99.90
8539;DHT22;4307;53.868;11.680;2023-10-19T03:37:46;8.50;99.90
8539;DHT22;4307;53.868;11.680;2023-10-19T03:40:16;8.50;99.90
8539;DHT22;4307;53.868;11.680;2023-10-19T03:42:52;8.50;99.90
8539;DHT22;4307;53.868;11.680;2023-10-19T03:45:20;8.50;99.90
8539;DHT22;4307;53.868;11.680;2023-10-19T03:47:49;8.50;99.90
8539;DHT22;4307;53.868;11.680;2023-10-19T03:50:20;8.50;99.90
8539;DHT22;4307;53.868;11.680;2023-10-19T03:52:47;8.50;99.90
8539;DHT22;4307;53.868;11.680;2023-10-19T03:55:13;8.50;99.90
8539;DHT22;4307;53.868;11.680;2023-10-19T03:57:43;8.50;99.90
8539;DHT22;4307;53.868;11.680;2023-10-19T04:00:16;8.50;99.90
8539;DHT22;4307;53.868;11.680;2023-10-19T04:02:44;8.50;99.90
8539;DHT22;4307;53.868;11.680;2023-10-19T04:05:12;8.50;99.90
8539;DHT22;4307;53.868;11.680;2023-10-19T04:07:47;8.50;99.90
8539;DHT22;4307;53.868;11.680;2023-10-19T04:10:15;8.50;99.90
8539;DHT22;4307;53.868;11.680;2023-10-19T04:12:56;8.50;99.90
8539;DHT22;4307;53.868;11.680;2023-10-19T04:15:25;8.50;99.90
8539;DHT22;4307;53.868;11.680;2023-10-19T04:17:52;8.50;99.90
8539;DHT22;4307;53.868;11.680;2023-10-19T04:20:20;8.50;99.90
8539;DHT22;4307;53.868;11.680;2023-10-19T04:23:09;8.50;99.90
8539;DHT22;4307;53.868;11.680;2023-10-19T04:25:39;8.50;99.90
8539;DHT22;4307;53.868;11.680;2023-10-19T04:28:06;8.50;99.90
8539;DHT22;4307;53.868;11.680;2023-10-19T04:30:33;8.50;99.90
8539;DHT22;4307;53.868;11.680;2023-10-19T04:33:02;8.50;99.90
8539;DHT22;4307;53.868;11.680;2023-10-19T04:35:29;8.50;99.90
8539;DHT22;4307;53.868;11.680;2023-10-19T04:37:59;8.50;99.90
8539;DHT22;4307;53.868;11.680;2023-10-19T04:40:27;8.50;99.90
8539;DHT22;4307;53.868;11.680;2023-10-19T04:42:54;8.60;99.90
8539;DHT22;4307;53.868;11.680;2023-10-19T04:45:21;8.50;99.90
8539;DHT22;4307;53.868;11.680;2023-10-19T04:47:50;8.60;99.90
8539;DHT22;4307;53.868;11.680;2023-10-19T04:50:18;8.60;99.90
8539;DHT22;4307;53.868;11.680;2023-10-19T04:52:45;8.60;99.90
8539;DHT22;4307;53.868;11.680;2023-10-19T04:55:13;8.60;99.90
8539;DHT22;4307;53.868;11.680;2023-10-19T04:57:41;8.60;99.90
8539;DHT22;4307;53.868;11.680;2023-10-19T05:00:08;8.60;99.90
8539;DHT22;4307;53.868;11.680;2023-10-19T05:02:38;8.60;99.90
8539;DHT22;4307;53.868;11.680;2023-10-19T05:05:05;8.60;99.90
8539;DHT22;4307;53.868;11.680;2023-10-19T05:07:32;8.60;99.90
8539;DHT22;4307;53.868;11.680;2023-10-19T05:09:59;8.60;99.90
8539;DHT22;4307;53.868;11.680;2023-10-19T05:12:26;8.60;99.90
8539;DHT22;4307;53.868;11.680;2023-10-19T05:14:54;8.60;99.90
8539;DHT22;4307;53.868;11.680;2023-10-19T05:17:20;8.60;99.90
8539;DHT22;4307;53.868;11.680;2023-10-19T05:19:49;8.60;99.90
8539;DHT22;4307;53.868;11.680;2023-10-19T05:22:16;8.60;99.90
8539;DHT22;4307;53.868;11.680;2023-10-19T05:24:43;8.60;99.90
8539;DHT22;4307;53.868;11.680;2023-10-19T05:27:09;8.60;99.90
8539;DHT22;4307;53.868;11.680;2023-10-19T05:29:36;8.60;99.90
8539;DHT22;4307;53.868;11.680;2023-10-19T05:32:05;8.60;99.90
8539;DHT22;4307;53.868;11.680;2023-10-19T05:34:32;8.70;99.90
8539;DHT22;4307;53.868;11.680;2023-10-19T05:37:00;8.70;99.90
8539;DHT22;4307;53.868;11.680;2023-10-19T05:39:27;8.70;99.90
8539;DHT22;4307;53.868;11.680;2023-10-19T05:41:56;8.70;99.90
8539;DHT22;4307;53.868;11.680;2023-10-19T05:44:24;8.70;99.90
8539;DHT22;4307;53.868;11.680;2023-10-19T05:46:51;8.70;99.90
8539;DHT22;4307;53.868;11.680;2023-10-19T05:49:19;8.70;99.90
8539;DHT22;4307;53.868;11.680;2023-10-19T05:51:46;8.70;99.90
8539;DHT22;4307;53.868;11.680;2023-10-19T05:54:12;8.70;99.90
8539;DHT22;4307;53.868;11.680;2023-10-19T05:56:39;8.70;99.90
8539;DHT22;4307;53.868;11.680;2023-10-19T05:59:05;8.70;99.90
8539;DHT22;4307;53.868;11.680;2023-10-19T06:01:32;8.70;99.90
8539;DHT22;4307;53.868;11.680;2023-10-19T06:03:59;8.70;99.90
8539;DHT22;4307;53.868;11.680;2023-10-19T06:06:27;8.70;99.90
8539;DHT22;4307;53.868;11.680;2023-10-19T06:08:54;8.80;99.90
8539;DHT22;4307;53.868;11.680;2023-10-19T06:11:21;8.70;99.90
8539;DHT22;4307;53.868;11.680;2023-10-19T06:13:48;8.80;99.90
8539;DHT22;4307;53.868;11.680;2023-10-19T06:16:15;8.80;99.90
8539;DHT22;4307;53.868;11.680;2023-10-19T06:18:42;8.80;99.90
8539;DHT22;4307;53.868;11.680;2023-10-19T06:21:09;8.80;99.90
8539;DHT22;4307;53.868;11.680;2023-10-19T06:23:39;8.80;99.90
8539;DHT22;4307;53.868;11.680;2023-10-19T06:26:09;8.80;99.90
8539;DHT22;4307;53.868;11.680;2023-10-19T06:28:38;8.80;99.90
8539;DHT22;4307;53.868;11.680;2023-10-19T06:31:06;8.80;99.90
8539;DHT22;4307;53.868;11.680;2023-10-19T06:33:32;8.80;99.90
8539;DHT22;4307;53.868;11.680;2023-10-19T06:35:59;8.80;99.90
8539;DHT22;4307;53.868;11.680;2023-10-19T06:38:28;8.90;99.90
8539;DHT22;4307;53.868;11.680;2023-10-19T06:40:58;8.90;99.90
8539;DHT22;4307;53.868;11.680;2023-10-19T06:43:25;8.90;99.90
8539;DHT22;4307;53.868;11.680;2023-10-19T06:45:56;8.90;99.90
8539;DHT22;4307;53.868;11.680;2023-10-19T06:48:22;8.90;99.90
8539;DHT22;4307;53.868;11.680;2023-10-19T06:50:49;9.00;99.90
8539;DHT22;4307;53.868;11.680;2023-10-19T06:53:16;9.00;99.90
8539;DHT22;4307;53.868;11.680;2023-10-19T06:55:42;9.00;99.90
8539;DHT22;4307;53.868;11.680;2023-10-19T06:58:11;9.00;99.90
8539;DHT22;4307;53.868;11.680;2023-10-19T07:00:40;9.00;99.90
8539;DHT22;4307;53.868;11.680;2023-10-19T07:03:08;9.00;99.90
8539;DHT22;4307;53.868;11.680;2023-10-19T07:05:35;9.10;99.90
8539;DHT22;4307;53.868;11.680;2023-10-19T07:08:03;9.10;99.90
8539;DHT22;4307;53.868;11.680;2023-10-19T07:10:32;9.10;99.90
8539;DHT22;4307;53.868;11.680;2023-10-19T07:13:00;9.10;99.90
8539;DHT22;4307;53.868;11.680;2023-10-19T07:15:28;9.10;99.90
8539;DHT22;4307;53.868;11.680;2023-10-19T07:17:55;9.10;99.90
8539;DHT22;4307;53.868;11.680;2023-10-19T07:20:23;9.10;99.90
8539;DHT22;4307;53.868;11.680;2023-10-19T07:22:54;9.10;99.90
8539;DHT22;4307;53.868;11.680;2023-10-19T07:25:23;9.10;99.90
8539;DHT22;4307;53.868;11.680;2023-10-19T07:27:51;9.10;99.90
8539;DHT22;4307;53.868;11.680;2023-10-19T07:30:19;9.20;99.90
8539;DHT22;4307;53.868;11.680;2023-10-19T07:32:49;9.20;99.90
8539;DHT22;4307;53.868;11.680;2023-10-19T07:35:23;9.20;99.90
8539;DHT22;4307;53.868;11.680;2023-10-19T07:37:51;9.20;99.90
8539;DHT22;4307;53.868;11.680;2023-10-19T07:40:18;9.20;99.90
8539;DHT22;4307;53.868;11.680;2023-10-19T07:42:45;9.20;99.90
8539;DHT22;4307;53.868;11.680;2023-10-19T07:45:12;9.20;99.90
8539;DHT22;4307;53.868;11.680;2023-10-19T07:47:38;9.20;99.90
8539;DHT22;4307;53.868;11.680;2023-10-19T07:50:08;9.20;99.90
8539;DHT22;4307;53.868;11.680;2023-10-19T07:52:40;9.30;99.90
8539;DHT22;4307;53.868;11.680;2023-10-19T07:55:07;9.40;99.90
8539;DHT22;4307;53.868;11.680;2023-10-19T07:57:34;9.30;99.90
8539;DHT22;4307;53.868;11.680;2023-10-19T08:00:01;9.30;99.90
8539;DHT22;4307;53.868;11.680;2023-10-19T08:02:29;9.30;99.90
8539;DHT22;4307;53.868;11.680;2023-10-19T08:04:56;9.30;99.90
8539;DHT22;4307;53.868;11.680;2023-10-19T08:07:24;9.30;99.90
8539;DHT22;4307;53.868;11.680;2023-10-19T08:09:52;9.40;99.90
8539;DHT22;4307;53.868;11.680;2023-10-19T08:12:20;9.40;99.90
8539;DHT22;4307;53.868;11.680;2023-10-19T08:14:47;9.40;99.90
8539;DHT22;4307;53.868;11.680;2023-10-19T08:17:14;9.40;99.90
8539;DHT22;4307;53.868;11.680;2023-10-19T08:19:42;9.40;99.90
8539;DHT22;4307;53.868;11.680;2023-10-19T08:22:08;9.50;99.90
8539;DHT22;4307;53.868;11.680;2023-10-19T08:24:37;9.50;99.90
8539;DHT22;4307;53.868;11.680;2023-10-19T08:27:03;9.50;99.90
8539;DHT22;4307;53.868;11.680;2023-10-19T08:29:31;9.50;99.90
8539;DHT22;4307;53.868;11.680;2023-10-19T08:31:57;9.60;99.90
8539;DHT22;4307;53.868;11.680;2023-10-19T08:34:24;9.60;99.90
8539;DHT22;4307;53.868;11.680;2023-10-19T08:36:51;9.60;99.90
8539;DHT22;4307;53.868;11.680;2023-10-19T08:39:19;9.60;99.90
8539;DHT22;4307;53.868;11.680;2023-10-19T08:41:47;9.60;99.90
8539;DHT22;4307;53.868;11.680;2023-10-19T08:44:19;9.60;99.90
8539;DHT22;4307;53.868;11.680;2023-10-19T08:46:46;9.60;99.90
8539;DHT22;4307;53.868;11.680;2023-10-19T08:49:14;9.60;99.90
8539;DHT22;4307;53.868;11.680;2023-10-19T08:51:43;9.60;99.90
8539;DHT22;4307;53.868;11.680;2023-10-19T08:54:11;9.60;99.90
8539;DHT22;4307;53.868;11.680;2023-10-19T08:56:38;9.70;99.90
8539;DHT22;4307;53.868;11.680;2023-10-19T08:59:08;9.70;99.90
8539;DHT22;4307;53.868;11.680;2023-10-19T09:01:36;9.70;99.90
8539;DHT22;4307;53.868;11.680;2023-10-19T09:04:04;9.70;99.90
8539;DHT22;4307;53.868;11.680;2023-10-19T09:06:31;9.70;99.90
8539;DHT22;4307;53.868;11.680;2023-10-19T09:09:02;9.70;99.90
8539;DHT22;4307;53.868;11.680;2023-10-19T09:11:30;9.70;99.90
8539;DHT22;4307;53.868;11.680;2023-10-19T09:13:57;9.80;99.90
8539;DHT22;4307;53.868;11.680;2023-10-19T09:16:25;9.80;99.90
8539;DHT22;4307;53.868;11.680;2023-10-19T09:18:54;9.80;99.90
8539;DHT22;4307;53.868;11.680;2023-10-19T09:21:26;9.90;99.90
8539;DHT22;4307;53.868;11.680;2023-10-19T09:23:54;9.90;99.90
8539;DHT22;4307;53.868;11.680;2023-10-19T09:26:21;10.00;99.90
8539;DHT22;4307;53.868;11.680;2023-10-19T09:28:49;10.00;99.90
8539;DHT22;4307;53.868;11.680;2023-10-19T09:31:17;10.00;99.90
8539;DHT22;4307;53.868;11.680;2023-10-19T09:33:46;10.00;99.90
8539;DHT22;4307;53.868;11.680;2023-10-19T09:36:14;10.10;99.90
8539;DHT22;4307;53.868;11.680;2023-10-19T09:38:46;10.10;99.90
8539;DHT22;4307;53.868;11.680;2023-10-19T09:41:16;10.10;99.90
8539;DHT22;4307;53.868;11.680;2023-10-19T09:43:44;10.10;99.90
8539;DHT22;4307;53.868;11.680;2023-10-19T09:46:12;10.20;99.90
8539;DHT22;4307;53.868;11.680;2023-10-19T09:48:41;10.20;99.90
8539;DHT22;4307;53.868;11.680;2023-10-19T09:51:10;10.10;99.90
8539;DHT22;4307;53.868;11.680;2023-10-19T09:53:38;10.10;99.90
8539;DHT22;4307;53.868;11.680;2023-10-19T09:56:07;10.20;99.90
8539;DHT22;4307;53.868;11.680;2023-10-19T09:58:36;10.20;99.90
8539;DHT22;4307;53.868;11.680;2023-10-19T10:01:06;10.10;99.90
8539;DHT22;4307;53.868;11.680;2023-10-19T10:03:44;10.20;99.90
8539;DHT22;4307;53.868;11.680;2023-10-19T10:06:13;10.20;99.90
8539;DHT22;4307;53.868;11.680;2023-10-19T10:08:42;10.30;99.90
8539;DHT22;4307;53.868;11.680;2023-10-19T10:11:23;10.30;99.90
8539;DHT22;4307;53.868;11.680;2023-10-19T10:13:51;10.30;99.90
8539;DHT22;4307;53.868;11.680;2023-10-19T10:16:21;10.30;99.90
8539;DHT22;4307;53.868;11.680;2023-10-19T10:18:50;10.30;99.90
8539;DHT22;4307;53.868;11.680;2023-10-19T10:21:20;10.30;99.90
8539;DHT22;4307;53.868;11.680;2023-10-19T10:23:48;10.30;99.90
8539;DHT22;4307;53.868;11.680;2023-10-19T10:26:17;10.30;99.90
8539;DHT22;4307;53.868;11.680;2023-10-19T10:28:48;10.30;99.90
8539;DHT22;4307;53.868;11.680;2023-10-19T10:31:19;10.40;99.90
8539;DHT22;4307;53.868;11.680;2023-10-19T10:33:48;10.40;99.90
8539;DHT22;4307;53.868;11.680;2023-10-19T10:36:18;10.50;99.90
8539;DHT22;4307;53.868;11.680;2023-10-19T10:38:46;10.50;99.90
8539;DHT22;4307;53.868;11.680;2023-10-19T10:41:19;10.60;99.90
8539;DHT22;4307;53.868;11.680;2023-10-19T10:43:54;10.60;99.90
8539;DHT22;4307;53.868;11.680;2023-10-19T10:46:22;10.60;99.90
8539;DHT22;4307;53.868;11.680;2023-10-19T10:48:49;10.60;99.90
8539;DHT22;4307;53.868;11.680;2023-10-19T10:51:19;10.60;99.90
8539;DHT22;4307;53.868;11.680;2023-10-19T10:53:47;10.50;99.90
8539;DHT22;4307;53.868;11.680;2023-10-19T10:56:15;10.50;99.90
8539;DHT22;4307;53.868;11.680;2023-10-19T10:58:41;10.50;99.90
8539;DHT22;4307;53.868;11.680;2023-10-19T11:01:08;10.50;99.90
8539;DHT22;4307;53.868;11.680;2023-10-19T11:03:36;10.50;99.90
8539;DHT22;4307;53.868;11.680;2023-10-19T11:06:04;10.50;99.90
8539;DHT22;4307;53.868;11.680;2023-10-19T11:08:35;10.50;99.90
8539;DHT22;4307;53.868;11.680;2023-10-19T11:11:03;10.50;99.90
8539;DHT22;4307;53.868;11.680;2023-10-19T11:13:31;10.40;99.90
8539;DHT22;4307;53.868;11.680;2023-10-19T11:16:02;10.40;99.90
8539;DHT22;4307;53.868;11.680;2023-10-19T11:18:30;10.30;99.90
8539;DHT22;4307;53.868;11.680;2023-10-19T11:20:58;10.40;99.90
8539;DHT22;4307;53.868;11.680;2023-10-19T11:23:38;10.40;99.90
8539;DHT22;4307;53.868;11.680;2023-10-19T11:26:06;10.30;99.90
8539;DHT22;4307;53.868;11.680;2023-10-19T11:28:34;10.30;99.90
8539;DHT22;4307;53.868;11.680;2023-10-19T11:31:17;10.40;99.90
8539;DHT22;4307;53.868;11.680;2023-10-19T11:33:46;10.40;99.90
8539;DHT22;4307;53.868;11.680;2023-10-19T11:36:15;10.40;99.90
8539;DHT22;4307;53.868;11.680;2023-10-19T11:38:46;10.40;99.90
8539;DHT22;4307;53.868;11.680;2023-10-19T11:41:14;10.40;99.90
8539;DHT22;4307;53.868;11.680;2023-10-19T11:43:42;10.40;99.90
8539;DHT22;4307;53.868;11.680;2023-10-19T11:46:09;10.40;99.90
8539;DHT22;4307;53.868;11.680;2023-10-19T11:48:37;10.40;99.90
8539;DHT22;4307;53.868;11.680;2023-10-19T11:51:05;10.50;99.90
8539;DHT22;4307;53.868;11.680;2023-10-19T11:53:33;10.50;99.90
8539;DHT22;4307;53.868;11.680;2023-10-19T11:56:03;10.50;99.90
8539;DHT22;4307;53.868;11.680;2023-10-19T11:58:31;10.50;99.90
8539;DHT22;4307;53.868;11.680;2023-10-19T12:01:00;10.40;99.90
8539;DHT22;4307;53.868;11.680;2023-10-19T12:03:27;10.40;99.90
8539;DHT22;4307;53.868;11.680;2023-10-19T12:05:53;10.40;99.90
8539;DHT22;4307;53.868;11.680;2023-10-19T12:08:21;10.40;99.90
8539;DHT22;4307;53.868;11.680;2023-10-19T12:10:47;10.40;99.90
8539;DHT22;4307;53.868;11.680;2023-10-19T12:13:15;10.40;99.90
8539;DHT22;4307;53.868;11.680;2023-10-19T12:15:42;10.40;99.90
8539;DHT22;4307;53.868;11.680;2023-10-19T12:18:17;10.30;99.90
8539;DHT22;4307;53.868;11.680;2023-10-19T12:20:44;10.30;99.90
8539;DHT22;4307;53.868;11.680;2023-10-19T12:23:11;10.30;99.90
8539;DHT22;4307;53.868;11.680;2023-10-19T12:25:38;10.40;99.90
8539;DHT22;4307;53.868;11.680;2023-10-19T12:28:05;10.40;99.90
8539;DHT22;4307;53.868;11.680;2023-10-19T12:30:34;10.40;99.90
8539;DHT22;4307;53.868;11.680;2023-10-19T12:33:02;10.40;99.90
8539;DHT22;4307;53.868;11.680;2023-10-19T12:35:33;10.30;99.90
8539;DHT22;4307;53.868;11.680;2023-10-19T12:38:10;10.30;99.90
8539;DHT22;4307;53.868;11.680;2023-10-19T12:40:42;10.30;99.90
8539;DHT22;4307;53.868;11.680;2023-10-19T12:43:09;10.30;99.90
8539;DHT22;4307;53.868;11.680;2023-10-19T12:45:39;10.30;99.90
8539;DHT22;4307;53.868;11.680;2023-10-19T12:48:07;10.30;99.90
8539;DHT22;4307;53.868;11.680;2023-10-19T12:50:36;10.30;99.90
8539;DHT22;4307;53.868;11.680;2023-10-19T12:53:03;10.30;99.90
8539;DHT22;4307;53.868;11.680;2023-10-19T12:55:31;10.30;99.90
8539;DHT22;4307;53.868;11.680;2023-10-19T12:57:58;10.30;99.90
8539;DHT22;4307;53.868;11.680;2023-10-19T13:00:32;10.30;99.90
8539;DHT22;4307;53.868;11.680;2023-10-19T13:03:03;10.40;99.90
8539;DHT22;4307;53.868;11.680;2023-10-19T13:05:32;10.40;99.90
8539;DHT22;4307;53.868;11.680;2023-10-19T13:07:58;10.40;99.90
8539;DHT22;4307;53.868;11.680;2023-10-19T13:10:28;10.40;99.90
8539;DHT22;4307;53.868;11.680;2023-10-19T13:12:58;10.40;99.90
8539;DHT22;4307;53.868;11.680;2023-10-19T13:15:25;10.40;99.90
8539;DHT22;4307;53.868;11.680;2023-10-19T13:17:56;10.40;99.90
8539;DHT22;4307;53.868;11.680;2023-10-19T13:20:25;10.40;99.90
8539;DHT22;4307;53.868;11.680;2023-10-19T13:22:52;10.40;99.90
8539;DHT22;4307;53.868;11.680;2023-10-19T13:25:19;10.40;99.90
8539;DHT22;4307;53.868;11.680;2023-10-19T13:28:05;10.40;99.90
8539;DHT22;4307;53.868;11.680;2023-10-19T13:30:36;10.30;99.90
8539;DHT22;4307;53.868;11.680;2023-10-19T13:33:04;10.30;99.90
8539;DHT22;4307;53.868;11.680;2023-10-19T13:35:33;10.30;99.90
8539;DHT22;4307;53.868;11.680;2023-10-19T13:37:59;10.30;99.90
8539;DHT22;4307;53.868;11.680;2023-10-19T13:40:27;10.30;99.90
8539;DHT22;4307;53.868;11.680;2023-10-19T13:42:55;10.30;99.90
8539;DHT22;4307;53.868;11.680;2023-10-19T13:45:22;10.30;99.90
8539;DHT22;4307;53.868;11.680;2023-10-19T13:47:48;10.20;99.90
8539;DHT22;4307;53.868;11.680;2023-10-19T13:50:15;10.20;99.90
8539;DHT22;4307;53.868;11.680;2023-10-19T13:52:44;10.20;99.90
8539;DHT22;4307;53.868;11.680;2023-10-19T13:55:11;10.20;99.90
8539;DHT22;4307;53.868;11.680;2023-10-19T13:57:42;10.20;99.90
8539;DHT22;4307;53.868;11.680;2023-10-19T14:00:10;10.20;99.90
8539;DHT22;4307;53.868;11.680;2023-10-19T14:02:37;10.20;99.90
8539;DHT22;4307;53.868;11.680;2023-10-19T14:05:04;10.20;99.90
8539;DHT22;4307;53.868;11.680;2023-10-19T14:07:32;10.20;99.90
8539;DHT22;4307;53.868;11.680;2023-10-19T14:10:00;10.20;99.90
8539;DHT22;4307;53.868;11.680;2023-10-19T14:12:27;10.10;99.90
8539;DHT22;4307;53.868;11.680;2023-10-19T14:14:53;10.10;99.90
8539;DHT22;4307;53.868;11.680;2023-10-19T14:17:20;10.10;99.90
8539;DHT22;4307;53.868;11.680;2023-10-19T14:19:47;10.10;99.90
8539;DHT22;4307;53.868;11.680;2023-10-19T14:22:13;10.10;99.90
8539;DHT22;4307;53.868;11.680;2023-10-19T14:24:41;10.00;99.90
8539;DHT22;4307;53.868;11.680;2023-10-19T14:27:09;10.00;99.90
8539;DHT22;4307;53.868;11.680;2023-10-19T14:29:36;9.90;99.90
8539;DHT22;4307;53.868;11.680;2023-10-19T14:32:03;9.90;99.90
8539;DHT22;4307;53.868;11.680;2023-10-19T14:34:29;9.90;99.90
8539;DHT22;4307;53.868;11.680;2023-10-19T14:36:56;9.90;99.90
8539;DHT22;4307;53.868;11.680;2023-10-19T14:39:23;9.90;99.90
8539;DHT22;4307;53.868;11.680;2023-10-19T14:41:50;9.90;99.90
8539;DHT22;4307;53.868;11.680;2023-10-19T14:44:18;9.90;99.90
8539;DHT22;4307;53.868;11.680;2023-10-19T14:46:44;9.80;99.90
8539;DHT22;4307;53.868;11.680;2023-10-19T14:49:12;9.80;99.90
8539;DHT22;4307;53.868;11.680;2023-10-19T14:51:39;9.80;99.90
8539;DHT22;4307;53.868;11.680;2023-10-19T14:54:06;9.80;99.90
8539;DHT22;4307;53.868;11.680;2023-10-19T14:56:33;9.70;99.90
8539;DHT22;4307;53.868;11.680;2023-10-19T14:59:00;9.70;99.90
8539;DHT22;4307;53.868;11.680;2023-10-19T15:01:27;9.60;99.90
8539;DHT22;4307;53.868;11.680;2023-10-19T15:03:54;9.60;99.90
8539;DHT22;4307;53.868;11.680;2023-10-19T15:06:21;9.50;99.90
8539;DHT22;4307;53.868;11.680;2023-10-19T15:08:47;9.50;99.90
8539;DHT22;4307;53.868;11.680;2023-10-19T15:11:16;9.40;99.90
8539;DHT22;4307;53.868;11.680;2023-10-19T15:13:44;9.30;99.90
8539;DHT22;4307;53.868;11.680;2023-10-19T15:16:12;9.30;99.90
8539;DHT22;4307;53.868;11.680;2023-10-19T15:18:40;9.20;99.90
8539;DHT22;4307;53.868;11.680;2023-10-19T15:21:08;9.20;99.90
8539;DHT22;4307;53.868;11.680;2023-10-19T15:23:34;9.20;99.90
8539;DHT22;4307;53.868;11.680;2023-10-19T15:26:01;9.20;99.90
8539;DHT22;4307;53.868;11.680;2023-10-19T15:28:28;9.20;99.90
8539;DHT22;4307;53.868;11.680;2023-10-19T15:30:57;9.10;99.90
8539;DHT22;4307;53.868;11.680;2023-10-19T15:33:25;9.20;99.90
8539;DHT22;4307;53.868;11.680;2023-10-19T15:35:53;9.20;99.90
8539;DHT22;4307;53.868;11.680;2023-10-19T15:38:21;9.20;99.90
8539;DHT22;4307;53.868;11.680;2023-10-19T15:40:48;9.20;99.90
8539;DHT22;4307;53.868;11.680;2023-10-19T15:43:15;9.20;99.90
8539;DHT22;4307;53.868;11.680;2023-10-19T15:45:42;9.20;99.90
8539;DHT22;4307;53.868;11.680;2023-10-19T15:48:11;9.20;99.90
8539;DHT22;4307;53.868;11.680;2023-10-19T15:50:38;9.20;99.90
8539;DHT22;4307;53.868;11.680;2023-10-19T15:53:07;9.20;99.90
8539;DHT22;4307;53.868;11.680;2023-10-19T15:55:35;9.20;99.90
8539;DHT22;4307;53.868;11.680;2023-10-19T15:58:02;9.20;99.90
8539;DHT22;4307;53.868;11.680;2023-10-19T16:00:30;9.20;99.90
8539;DHT22;4307;53.868;11.680;2023-10-19T16:02:57;9.20;99.90
8539;DHT22;4307;53.868;11.680;2023-10-19T16:05:24;9.20;99.90